sensor_id;sensor_type;location;lat;lon;timestamp;P1;durP1;ratioP1;P2;durP2;ratioP2
51326;SDS011;37412;52.836;6.362;2023-08-06T00:01:17;17.45;;;15.80;;
51326;SDS011;37412;52.836;6.362;2023-08-06T00:04:06;17.23;;;15.53;;
51326;SDS011;37412;52.836;6.362;2023-08-06T00:06:52;16.95;;;15.43;;
51326;SDS011;37412;52.836;6.362;2023-08-06T00:09:38;15.73;;;14.17;;
51326;SDS011;37412;52.836;6.362;2023-08-06T00:12:24;17.15;;;15.10;;
51326;SDS011;37412;52.836;6.362;2023-08-06T00:15:10;15.45;;;14.05;;
51326;SDS011;37412;52.836;6.362;2023-08-06T00:17:56;14.70;;;13.20;;
51326;SDS011;37412;52.836;6.362;2023-08-06T00:20:42;15.43;;;13.82;;
51326;SDS011;37412;52.836;6.362;2023-08-06T00:23:28;14.65;;;13.30;;
51326;SDS011;37412;52.836;6.362;2023-08-06T00:26:14;14.98;;;13.38;;
51326;SDS011;37412;52.836;6.362;2023-08-06T00:29:00;16.20;;;13.45;;
51326;SDS011;37412;52.836;6.362;2023-08-06T00:31:46;14.70;;;13.20;;
51326;SDS011;37412;52.836;6.362;2023-08-06T00:34:32;14.90;;;12.90;;
51326;SDS011;37412;52.836;6.362;2023-08-06T00:37:18;14.23;;;12.73;;
51326;SDS011;37412;52.836;6.362;2023-08-06T00:40:04;14.18;;;12.70;;
51326;SDS011;37412;52.836;6.362;2023-08-06T00:42:51;13.73;;;12.23;;
51326;SDS011;37412;52.836;6.362;2023-08-06T00:45:37;14.13;;;12.73;;
51326;SDS011;37412;52.836;6.362;2023-08-06T00:48:23;13.85;;;12.35;;
51326;SDS011;37412;52.836;6.362;2023-08-06T00:51:09;13.70;;;12.32;;
51326;SDS011;37412;52.836;6.362;2023-08-06T00:53:56;13.38;;;11.98;;
51326;SDS011;37412;52.836;6.362;2023-08-06T00:56:42;14.60;;;12.00;;
51326;SDS011;37412;52.836;6.362;2023-08-06T00:59:28;13.93;;;12.00;;
51326;SDS011;37412;52.836;6.362;2023-08-06T01:02:16;13.68;;;12.38;;
51326;SDS011;37412;52.836;6.362;2023-08-06T01:05:02;13.27;;;11.90;;
51326;SDS011;37412;52.836;6.362;2023-08-06T01:11:32;14.15;;;11.80;;
51326;SDS011;37412;52.836;6.362;2023-08-06T01:14:28;14.83;;;11.83;;
51326;SDS011;37412;52.836;6.362;2023-08-06T01:17:20;13.40;;;12.00;;
51326;SDS011;37412;52.836;6.362;2023-08-06T01:20:08;13.18;;;11.82;;
51326;SDS011;37412;52.836;6.362;2023-08-06T01:22:54;12.98;;;11.68;;
51326;SDS011;37412;52.836;6.362;2023-08-06T01:25:46;13.25;;;11.73;;
51326;SDS011;37412;52.836;6.362;2023-08-06T01:31:51;12.20;;;10.90;;
51326;SDS011;37412;52.836;6.362;2023-08-06T01:34:39;12.70;;;11.27;;
51326;SDS011;37412;52.836;6.362;2023-08-06T01:37:27;12.05;;;10.85;;
51326;SDS011;37412;52.836;6.362;2023-08-06T01:40:14;12.07;;;10.85;;
51326;SDS011;37412;52.836;6.362;2023-08-06T01:43:00;12.10;;;11.00;;
51326;SDS011;37412;52.836;6.362;2023-08-06T01:45:46;13.03;;;11.20;;
51326;SDS011;37412;52.836;6.362;2023-08-06T01:48:32;12.20;;;11.10;;
51326;SDS011;37412;52.836;6.362;2023-08-06T01:51:17;12.07;;;10.85;;
51326;SDS011;37412;52.836;6.362;2023-08-06T01:54:03;12.35;;;11.10;;
51326;SDS011;37412;52.836;6.362;2023-08-06T01:56:49;12.40;;;11.20;;
51326;SDS011;37412;52.836;6.362;2023-08-06T01:59:35;12.98;;;11.25;;
51326;SDS011;37412;52.836;6.362;2023-08-06T02:02:21;11.98;;;10.63;;
51326;SDS011;37412;52.836;6.362;2023-08-06T02:05:07;13.17;;;11.13;;
51326;SDS011;37412;52.836;6.362;2023-08-06T02:07:53;12.95;;;10.95;;
51326;SDS011;37412;52.836;6.362;2023-08-06T02:10:39;12.80;;;11.00;;
51326;SDS011;37412;52.836;6.362;2023-08-06T02:13:25;12.27;;;10.75;;
51326;SDS011;37412;52.836;6.362;2023-08-06T02:16:11;11.50;;;10.48;;
51326;SDS011;37412;52.836;6.362;2023-08-06T02:18:57;11.65;;;10.45;;
51326;SDS011;37412;52.836;6.362;2023-08-06T02:21:43;13.23;;;10.30;;
51326;SDS011;37412;52.836;6.362;2023-08-06T02:24:29;14.60;;;11.15;;
51326;SDS011;37412;52.836;6.362;2023-08-06T02:27:14;11.98;;;10.40;;
51326;SDS011;37412;52.836;6.362;2023-08-06T02:30:01;12.73;;;11.07;;
51326;SDS011;37412;52.836;6.362;2023-08-06T02:32:48;12.48;;;11.20;;
51326;SDS011;37412;52.836;6.362;2023-08-06T02:35:33;11.73;;;10.52;;
51326;SDS011;37412;52.836;6.362;2023-08-06T02:38:19;13.27;;;11.30;;
51326;SDS011;37412;52.836;6.362;2023-08-06T02:41:05;13.60;;;10.30;;
51326;SDS011;37412;52.836;6.362;2023-08-06T02:43:52;12.50;;;10.80;;
51326;SDS011;37412;52.836;6.362;2023-08-06T02:46:38;12.48;;;10.68;;
51326;SDS011;37412;52.836;6.362;2023-08-06T02:49:24;11.85;;;10.27;;
51326;SDS011;37412;52.836;6.362;2023-08-06T02:52:10;12.20;;;11.00;;
51326;SDS011;37412;52.836;6.362;2023-08-06T02:54:56;11.88;;;10.68;;
51326;SDS011;37412;52.836;6.362;2023-08-06T02:57:44;13.20;;;11.30;;
51326;SDS011;37412;52.836;6.362;2023-08-06T03:00:30;12.32;;;11.02;;
51326;SDS011;37412;52.836;6.362;2023-08-06T03:03:16;12.80;;;10.73;;
51326;SDS011;37412;52.836;6.362;2023-08-06T03:06:02;12.38;;;10.77;;
51326;SDS011;37412;52.836;6.362;2023-08-06T03:08:48;12.70;;;10.63;;
51326;SDS011;37412;52.836;6.362;2023-08-06T03:11:34;11.95;;;10.75;;
51326;SDS011;37412;52.836;6.362;2023-08-06T03:14:20;13.63;;;11.45;;
51326;SDS011;37412;52.836;6.362;2023-08-06T03:17:05;12.55;;;11.25;;
51326;SDS011;37412;52.836;6.362;2023-08-06T03:19:51;12.82;;;10.82;;
51326;SDS011;37412;52.836;6.362;2023-08-06T03:22:37;12.77;;;11.27;;
51326;SDS011;37412;52.836;6.362;2023-08-06T03:25:23;11.65;;;10.55;;
51326;SDS011;37412;52.836;6.362;2023-08-06T03:28:09;12.17;;;10.97;;
51326;SDS011;37412;52.836;6.362;2023-08-06T03:30:59;12.77;;;11.43;;
51326;SDS011;37412;52.836;6.362;2023-08-06T03:33:49;12.65;;;11.45;;
51326;SDS011;37412;52.836;6.362;2023-08-06T03:36:35;13.05;;;11.32;;
51326;SDS011;37412;52.836;6.362;2023-08-06T03:39:21;14.48;;;11.48;;
51326;SDS011;37412;52.836;6.362;2023-08-06T03:42:06;12.88;;;11.57;;
51326;SDS011;37412;52.836;6.362;2023-08-06T03:44:52;11.90;;;10.70;;
51326;SDS011;37412;52.836;6.362;2023-08-06T03:47:38;13.52;;;11.07;;
51326;SDS011;37412;52.836;6.362;2023-08-06T03:50:24;12.10;;;10.77;;
51326;SDS011;37412;52.836;6.362;2023-08-06T03:53:10;12.60;;;11.30;;
51326;SDS011;37412;52.836;6.362;2023-08-06T03:55:56;12.50;;;11.20;;
51326;SDS011;37412;52.836;6.362;2023-08-06T03:58:45;12.55;;;11.15;;
51326;SDS011;37412;52.836;6.362;2023-08-06T04:01:31;13.20;;;11.90;;
51326;SDS011;37412;52.836;6.362;2023-08-06T04:04:17;12.93;;;11.63;;
51326;SDS011;37412;52.836;6.362;2023-08-06T04:07:03;13.30;;;12.10;;
51326;SDS011;37412;52.836;6.362;2023-08-06T04:09:57;13.23;;;11.47;;
51326;SDS011;37412;52.836;6.362;2023-08-06T04:12:44;13.33;;;11.87;;
51326;SDS011;37412;52.836;6.362;2023-08-06T04:15:30;13.73;;;11.60;;
51326;SDS011;37412;52.836;6.362;2023-08-06T04:18:19;13.25;;;12.05;;
51326;SDS011;37412;52.836;6.362;2023-08-06T04:21:05;13.57;;;12.18;;
51326;SDS011;37412;52.836;6.362;2023-08-06T04:23:51;13.23;;;12.00;;
51326;SDS011;37412;52.836;6.362;2023-08-06T04:26:37;12.95;;;11.50;;
51326;SDS011;37412;52.836;6.362;2023-08-06T04:29:23;14.07;;;12.60;;
51326;SDS011;37412;52.836;6.362;2023-08-06T04:32:09;13.60;;;12.20;;
51326;SDS011;37412;52.836;6.362;2023-08-06T04:34:55;13.17;;;11.87;;
51326;SDS011;37412;52.836;6.362;2023-08-06T04:37:42;13.60;;;12.30;;
51326;SDS011;37412;52.836;6.362;2023-08-06T04:40:28;13.10;;;11.80;;
51326;SDS011;37412;52.836;6.362;2023-08-06T04:43:14;13.50;;;12.20;;
51326;SDS011;37412;52.836;6.362;2023-08-06T04:45:59;13.88;;;12.50;;
51326;SDS011;37412;52.836;6.362;2023-08-06T04:48:45;13.48;;;12.23;;
51326;SDS011;37412;52.836;6.362;2023-08-06T04:51:31;13.43;;;12.02;;
51326;SDS011;37412;52.836;6.362;2023-08-06T04:54:17;13.90;;;12.50;;
51326;SDS011;37412;52.836;6.362;2023-08-06T04:57:03;15.70;;;12.32;;
51326;SDS011;37412;52.836;6.362;2023-08-06T04:59:49;14.23;;;12.30;;
51326;SDS011;37412;52.836;6.362;2023-08-06T05:02:35;13.90;;;12.60;;
51326;SDS011;37412;52.836;6.362;2023-08-06T05:05:23;13.52;;;12.10;;
51326;SDS011;37412;52.836;6.362;2023-08-06T05:08:13;14.43;;;13.02;;
51326;SDS011;37412;52.836;6.362;2023-08-06T05:11:02;13.85;;;12.32;;
51326;SDS011;37412;52.836;6.362;2023-08-06T05:13:47;12.87;;;11.63;;
51326;SDS011;37412;52.836;6.362;2023-08-06T05:16:33;14.45;;;12.95;;
51326;SDS011;37412;52.836;6.362;2023-08-06T05:19:19;13.90;;;12.57;;
51326;SDS011;37412;52.836;6.362;2023-08-06T05:22:05;14.63;;;13.18;;
51326;SDS011;37412;52.836;6.362;2023-08-06T05:24:51;15.05;;;13.63;;
51326;SDS011;37412;52.836;6.362;2023-08-06T05:27:37;15.23;;;13.48;;
51326;SDS011;37412;52.836;6.362;2023-08-06T05:30:23;15.32;;;13.73;;
51326;SDS011;37412;52.836;6.362;2023-08-06T05:33:09;15.63;;;13.45;;
51326;SDS011;37412;52.836;6.362;2023-08-06T05:35:55;15.20;;;13.60;;
51326;SDS011;37412;52.836;6.362;2023-08-06T05:38:41;14.95;;;13.35;;
51326;SDS011;37412;52.836;6.362;2023-08-06T05:41:27;15.20;;;13.70;;
51326;SDS011;37412;52.836;6.362;2023-08-06T05:44:12;16.02;;;13.10;;
51326;SDS011;37412;52.836;6.362;2023-08-06T05:46:58;14.95;;;13.40;;
51326;SDS011;37412;52.836;6.362;2023-08-06T05:49:44;15.30;;;13.73;;
51326;SDS011;37412;52.836;6.362;2023-08-06T05:52:31;15.32;;;13.82;;
51326;SDS011;37412;52.836;6.362;2023-08-06T05:55:17;15.23;;;12.50;;
51326;SDS011;37412;52.836;6.362;2023-08-06T05:58:03;15.80;;;13.65;;
51326;SDS011;37412;52.836;6.362;2023-08-06T06:00:49;15.00;;;13.60;;
51326;SDS011;37412;52.836;6.362;2023-08-06T06:03:35;14.93;;;13.50;;
51326;SDS011;37412;52.836;6.362;2023-08-06T06:06:21;16.50;;;13.00;;
51326;SDS011;37412;52.836;6.362;2023-08-06T06:09:06;15.80;;;14.00;;
51326;SDS011;37412;52.836;6.362;2023-08-06T06:11:53;14.37;;;12.97;;
51326;SDS011;37412;52.836;6.362;2023-08-06T06:14:38;15.60;;;14.05;;
51326;SDS011;37412;52.836;6.362;2023-08-06T06:17:24;15.40;;;13.90;;
51326;SDS011;37412;52.836;6.362;2023-08-06T06:20:10;16.90;;;13.38;;
51326;SDS011;37412;52.836;6.362;2023-08-06T06:22:56;14.90;;;13.50;;
51326;SDS011;37412;52.836;6.362;2023-08-06T06:25:49;14.85;;;13.32;;
51326;SDS011;37412;52.836;6.362;2023-08-06T06:28:38;14.77;;;13.32;;
51326;SDS011;37412;52.836;6.362;2023-08-06T06:31:24;14.65;;;13.15;;
51326;SDS011;37412;52.836;6.362;2023-08-06T06:34:10;14.50;;;13.10;;
51326;SDS011;37412;52.836;6.362;2023-08-06T06:36:59;14.38;;;13.00;;
51326;SDS011;37412;52.836;6.362;2023-08-06T06:39:45;14.90;;;13.40;;
51326;SDS011;37412;52.836;6.362;2023-08-06T06:42:31;15.90;;;14.32;;
51326;SDS011;37412;52.836;6.362;2023-08-06T06:45:16;15.27;;;13.77;;
51326;SDS011;37412;52.836;6.362;2023-08-06T06:48:02;14.98;;;13.57;;
51326;SDS011;37412;52.836;6.362;2023-08-06T06:50:49;15.20;;;13.63;;
51326;SDS011;37412;52.836;6.362;2023-08-06T06:53:34;16.20;;;14.53;;
51326;SDS011;37412;52.836;6.362;2023-08-06T06:56:20;15.32;;;13.93;;
51326;SDS011;37412;52.836;6.362;2023-08-06T06:59:06;15.80;;;14.33;;
51326;SDS011;37412;52.836;6.362;2023-08-06T07:01:52;15.20;;;13.80;;
51326;SDS011;37412;52.836;6.362;2023-08-06T07:04:38;15.57;;;14.03;;
51326;SDS011;37412;52.836;6.362;2023-08-06T07:07:24;15.80;;;14.20;;
51326;SDS011;37412;52.836;6.362;2023-08-06T07:10:10;17.17;;;15.50;;
51326;SDS011;37412;52.836;6.362;2023-08-06T07:12:56;16.87;;;15.30;;
51326;SDS011;37412;52.836;6.362;2023-08-06T07:15:42;17.10;;;15.32;;
51326;SDS011;37412;52.836;6.362;2023-08-06T07:18:28;16.43;;;14.83;;
51326;SDS011;37412;52.836;6.362;2023-08-06T07:21:14;16.05;;;14.55;;
51326;SDS011;37412;52.836;6.362;2023-08-06T07:24:00;17.08;;;15.38;;
51326;SDS011;37412;52.836;6.362;2023-08-06T07:26:46;16.30;;;14.70;;
51326;SDS011;37412;52.836;6.362;2023-08-06T07:29:32;16.10;;;14.60;;
51326;SDS011;37412;52.836;6.362;2023-08-06T07:32:18;16.27;;;14.67;;
51326;SDS011;37412;52.836;6.362;2023-08-06T07:35:04;16.63;;;14.93;;
51326;SDS011;37412;52.836;6.362;2023-08-06T07:37:51;15.88;;;14.38;;
51326;SDS011;37412;52.836;6.362;2023-08-06T07:40:38;16.33;;;14.73;;
51326;SDS011;37412;52.836;6.362;2023-08-06T07:43:24;16.25;;;14.75;;
51326;SDS011;37412;52.836;6.362;2023-08-06T07:46:10;16.35;;;14.60;;
51326;SDS011;37412;52.836;6.362;2023-08-06T07:48:58;15.93;;;14.43;;
51326;SDS011;37412;52.836;6.362;2023-08-06T07:51:44;14.60;;;13.27;;
51326;SDS011;37412;52.836;6.362;2023-08-06T07:54:30;14.20;;;12.90;;
51326;SDS011;37412;52.836;6.362;2023-08-06T07:57:16;15.45;;;13.95;;
51326;SDS011;37412;52.836;6.362;2023-08-06T08:00:02;15.43;;;13.95;;
51326;SDS011;37412;52.836;6.362;2023-08-06T08:02:50;14.77;;;13.40;;
51326;SDS011;37412;52.836;6.362;2023-08-06T08:05:36;14.25;;;12.95;;
51326;SDS011;37412;52.836;6.362;2023-08-06T08:08:22;13.65;;;12.45;;
51326;SDS011;37412;52.836;6.362;2023-08-06T08:11:08;13.77;;;12.48;;
51326;SDS011;37412;52.836;6.362;2023-08-06T08:13:54;13.60;;;12.23;;
51326;SDS011;37412;52.836;6.362;2023-08-06T08:16:40;13.48;;;12.18;;
51326;SDS011;37412;52.836;6.362;2023-08-06T08:19:26;13.82;;;12.52;;
51326;SDS011;37412;52.836;6.362;2023-08-06T08:22:13;14.10;;;12.80;;
51326;SDS011;37412;52.836;6.362;2023-08-06T08:24:59;13.27;;;11.88;;
51326;SDS011;37412;52.836;6.362;2023-08-06T08:27:45;14.43;;;13.02;;
51326;SDS011;37412;52.836;6.362;2023-08-06T08:30:31;14.10;;;12.80;;
51326;SDS011;37412;52.836;6.362;2023-08-06T08:33:17;13.20;;;11.98;;
51326;SDS011;37412;52.836;6.362;2023-08-06T08:36:03;13.38;;;12.18;;
51326;SDS011;37412;52.836;6.362;2023-08-06T08:38:49;13.57;;;12.00;;
51326;SDS011;37412;52.836;6.362;2023-08-06T08:41:39;13.48;;;12.27;;
51326;SDS011;37412;52.836;6.362;2023-08-06T08:44:25;21.58;;;16.38;;
51326;SDS011;37412;52.836;6.362;2023-08-06T08:47:17;15.00;;;12.70;;
51326;SDS011;37412;52.836;6.362;2023-08-06T08:50:03;13.70;;;12.38;;
51326;SDS011;37412;52.836;6.362;2023-08-06T08:52:51;13.73;;;12.35;;
51326;SDS011;37412;52.836;6.362;2023-08-06T08:55:38;12.87;;;11.67;;
51326;SDS011;37412;52.836;6.362;2023-08-06T08:58:24;13.85;;;12.52;;
51326;SDS011;37412;52.836;6.362;2023-08-06T09:01:10;14.05;;;12.63;;
51326;SDS011;37412;52.836;6.362;2023-08-06T09:03:57;13.50;;;12.10;;
51326;SDS011;37412;52.836;6.362;2023-08-06T09:06:46;12.48;;;11.30;;
51326;SDS011;37412;52.836;6.362;2023-08-06T09:09:36;12.00;;;11.00;;
51326;SDS011;37412;52.836;6.362;2023-08-06T09:12:26;12.32;;;11.23;;
51326;SDS011;37412;52.836;6.362;2023-08-06T09:15:12;12.18;;;11.00;;
51326;SDS011;37412;52.836;6.362;2023-08-06T09:17:58;11.27;;;10.32;;
51326;SDS011;37412;52.836;6.362;2023-08-06T09:20:44;11.10;;;10.07;;
51326;SDS011;37412;52.836;6.362;2023-08-06T09:23:31;10.52;;;9.52;;
51326;SDS011;37412;52.836;6.362;2023-08-06T09:26:18;10.10;;;9.20;;
51326;SDS011;37412;52.836;6.362;2023-08-06T09:29:05;10.45;;;9.32;;
51326;SDS011;37412;52.836;6.362;2023-08-06T09:31:56;9.75;;;8.85;;
51326;SDS011;37412;52.836;6.362;2023-08-06T09:34:43;9.18;;;8.35;;
51326;SDS011;37412;52.836;6.362;2023-08-06T09:37:35;8.87;;;8.07;;
51326;SDS011;37412;52.836;6.362;2023-08-06T09:40:31;8.65;;;7.72;;
51326;SDS011;37412;52.836;6.362;2023-08-06T09:43:18;8.40;;;7.60;;
51326;SDS011;37412;52.836;6.362;2023-08-06T09:46:10;8.10;;;7.40;;
51326;SDS011;37412;52.836;6.362;2023-08-06T09:48:58;7.93;;;7.20;;
51326;SDS011;37412;52.836;6.362;2023-08-06T09:51:44;8.38;;;7.68;;
51326;SDS011;37412;52.836;6.362;2023-08-06T09:54:31;8.55;;;7.75;;
51326;SDS011;37412;52.836;6.362;2023-08-06T09:57:21;8.60;;;7.80;;
51326;SDS011;37412;52.836;6.362;2023-08-06T10:00:10;8.00;;;7.20;;
51326;SDS011;37412;52.836;6.362;2023-08-06T10:02:59;7.83;;;7.03;;
51326;SDS011;37412;52.836;6.362;2023-08-06T10:05:45;8.00;;;7.20;;
51326;SDS011;37412;52.836;6.362;2023-08-06T10:08:32;7.28;;;6.57;;
51326;SDS011;37412;52.836;6.362;2023-08-06T10:11:18;8.10;;;6.90;;
51326;SDS011;37412;52.836;6.362;2023-08-06T10:14:08;6.50;;;5.90;;
51326;SDS011;37412;52.836;6.362;2023-08-06T10:16:58;7.38;;;6.03;;
51326;SDS011;37412;52.836;6.362;2023-08-06T10:19:45;6.30;;;5.70;;
51326;SDS011;37412;52.836;6.362;2023-08-06T10:22:32;6.07;;;5.47;;
51326;SDS011;37412;52.836;6.362;2023-08-06T10:25:19;6.28;;;5.68;;
51326;SDS011;37412;52.836;6.362;2023-08-06T10:28:07;6.43;;;5.83;;
51326;SDS011;37412;52.836;6.362;2023-08-06T10:30:55;6.55;;;5.95;;
51326;SDS011;37412;52.836;6.362;2023-08-06T10:33:41;6.38;;;5.78;;
51326;SDS011;37412;52.836;6.362;2023-08-06T10:36:28;6.75;;;6.05;;
51326;SDS011;37412;52.836;6.362;2023-08-06T10:39:18;6.10;;;5.50;;
51326;SDS011;37412;52.836;6.362;2023-08-06T10:42:04;7.70;;;6.20;;
51326;SDS011;37412;52.836;6.362;2023-08-06T10:48:00;4.97;;;4.40;;
51326;SDS011;37412;52.836;6.362;2023-08-06T10:50:46;4.95;;;4.40;;
51326;SDS011;37412;52.836;6.362;2023-08-06T10:53:32;4.65;;;4.25;;
51326;SDS011;37412;52.836;6.362;2023-08-06T10:56:19;4.85;;;4.35;;
51326;SDS011;37412;52.836;6.362;2023-08-06T10:59:07;5.03;;;4.25;;
51326;SDS011;37412;52.836;6.362;2023-08-06T11:01:55;5.10;;;4.30;;
51326;SDS011;37412;52.836;6.362;2023-08-06T11:04:42;5.28;;;3.90;;
51326;SDS011;37412;52.836;6.362;2023-08-06T11:07:29;4.80;;;4.30;;
51326;SDS011;37412;52.836;6.362;2023-08-06T11:10:15;4.68;;;4.10;;
51326;SDS011;37412;52.836;6.362;2023-08-06T11:13:01;3.65;;;3.30;;
51326;SDS011;37412;52.836;6.362;2023-08-06T11:15:48;5.05;;;4.30;;
51326;SDS011;37412;52.836;6.362;2023-08-06T11:18:34;4.05;;;3.40;;
51326;SDS011;37412;52.836;6.362;2023-08-06T11:21:20;3.65;;;2.45;;
51326;SDS011;37412;52.836;6.362;2023-08-06T11:24:07;4.53;;;3.00;;
51326;SDS011;37412;52.836;6.362;2023-08-06T11:26:53;3.88;;;3.13;;
51326;SDS011;37412;52.836;6.362;2023-08-06T11:29:39;4.80;;;3.40;;
51326;SDS011;37412;52.836;6.362;2023-08-06T11:32:25;3.43;;;3.03;;
51326;SDS011;37412;52.836;6.362;2023-08-06T11:35:13;3.10;;;2.75;;
51326;SDS011;37412;52.836;6.362;2023-08-06T11:38:04;4.90;;;2.50;;
51326;SDS011;37412;52.836;6.362;2023-08-06T11:40:51;3.15;;;2.58;;
51326;SDS011;37412;52.836;6.362;2023-08-06T11:43:36;4.75;;;3.03;;
51326;SDS011;37412;52.836;6.362;2023-08-06T11:46:22;4.93;;;3.10;;
51326;SDS011;37412;52.836;6.362;2023-08-06T11:49:09;5.70;;;3.08;;
51326;SDS011;37412;52.836;6.362;2023-08-06T11:51:55;3.92;;;2.83;;
51326;SDS011;37412;52.836;6.362;2023-08-06T11:54:42;3.38;;;2.70;;
51326;SDS011;37412;52.836;6.362;2023-08-06T11:57:32;4.40;;;2.87;;
51326;SDS011;37412;52.836;6.362;2023-08-06T12:00:24;4.85;;;3.30;;
51326;SDS011;37412;52.836;6.362;2023-08-06T12:03:11;4.53;;;3.13;;
51326;SDS011;37412;52.836;6.362;2023-08-06T12:05:57;4.10;;;3.35;;
51326;SDS011;37412;52.836;6.362;2023-08-06T12:08:42;4.83;;;3.20;;
51326;SDS011;37412;52.836;6.362;2023-08-06T12:11:29;3.80;;;3.40;;
51326;SDS011;37412;52.836;6.362;2023-08-06T12:14:15;3.47;;;3.17;;
51326;SDS011;37412;52.836;6.362;2023-08-06T12:17:01;4.97;;;3.30;;
51326;SDS011;37412;52.836;6.362;2023-08-06T12:19:47;4.10;;;3.13;;
51326;SDS011;37412;52.836;6.362;2023-08-06T12:22:34;4.00;;;3.30;;
51326;SDS011;37412;52.836;6.362;2023-08-06T12:25:20;3.45;;;3.10;;
51326;SDS011;37412;52.836;6.362;2023-08-06T12:28:06;3.58;;;3.25;;
51326;SDS011;37412;52.836;6.362;2023-08-06T12:30:54;3.80;;;3.20;;
51326;SDS011;37412;52.836;6.362;2023-08-06T12:33:40;4.30;;;3.40;;
51326;SDS011;37412;52.836;6.362;2023-08-06T12:36:26;3.87;;;3.10;;
51326;SDS011;37412;52.836;6.362;2023-08-06T12:39:12;4.35;;;3.30;;
51326;SDS011;37412;52.836;6.362;2023-08-06T12:42:04;5.40;;;4.18;;
51326;SDS011;37412;52.836;6.362;2023-08-06T12:44:51;7.70;;;3.83;;
51326;SDS011;37412;52.836;6.362;2023-08-06T12:47:37;3.97;;;3.35;;
51326;SDS011;37412;52.836;6.362;2023-08-06T12:50:23;5.70;;;3.65;;
51326;SDS011;37412;52.836;6.362;2023-08-06T12:53:11;5.05;;;3.58;;
51326;SDS011;37412;52.836;6.362;2023-08-06T12:55:58;3.75;;;2.80;;
51326;SDS011;37412;52.836;6.362;2023-08-06T12:58:44;5.80;;;3.13;;
51326;SDS011;37412;52.836;6.362;2023-08-06T13:01:30;3.25;;;2.95;;
51326;SDS011;37412;52.836;6.362;2023-08-06T13:04:15;3.87;;;3.10;;
51326;SDS011;37412;52.836;6.362;2023-08-06T13:07:01;4.40;;;2.95;;
51326;SDS011;37412;52.836;6.362;2023-08-06T13:09:47;3.35;;;2.78;;
51326;SDS011;37412;52.836;6.362;2023-08-06T13:12:33;4.32;;;2.63;;
51326;SDS011;37412;52.836;6.362;2023-08-06T13:15:20;4.03;;;3.05;;
51326;SDS011;37412;52.836;6.362;2023-08-06T13:18:10;4.33;;;2.50;;
51326;SDS011;37412;52.836;6.362;2023-08-06T13:20:56;3.47;;;2.10;;
51326;SDS011;37412;52.836;6.362;2023-08-06T13:23:42;3.35;;;2.55;;
51326;SDS011;37412;52.836;6.362;2023-08-06T13:26:29;3.20;;;2.50;;
51326;SDS011;37412;52.836;6.362;2023-08-06T13:29:15;2.80;;;2.50;;
51326;SDS011;37412;52.836;6.362;2023-08-06T13:32:01;3.50;;;2.72;;
51326;SDS011;37412;52.836;6.362;2023-08-06T13:34:47;2.90;;;2.45;;
51326;SDS011;37412;52.836;6.362;2023-08-06T13:37:33;4.30;;;2.78;;
51326;SDS011;37412;52.836;6.362;2023-08-06T13:40:19;3.33;;;2.20;;
51326;SDS011;37412;52.836;6.362;2023-08-06T13:43:05;2.58;;;2.33;;
51326;SDS011;37412;52.836;6.362;2023-08-06T13:45:51;3.28;;;2.70;;
51326;SDS011;37412;52.836;6.362;2023-08-06T13:48:37;3.08;;;2.17;;
51326;SDS011;37412;52.836;6.362;2023-08-06T13:51:23;3.83;;;2.17;;
51326;SDS011;37412;52.836;6.362;2023-08-06T13:54:09;3.33;;;2.30;;
51326;SDS011;37412;52.836;6.362;2023-08-06T13:56:55;3.63;;;2.57;;
51326;SDS011;37412;52.836;6.362;2023-08-06T13:59:40;3.40;;;2.40;;
51326;SDS011;37412;52.836;6.362;2023-08-06T14:02:29;2.47;;;2.10;;
51326;SDS011;37412;52.836;6.362;2023-08-06T14:05:15;5.60;;;2.60;;
51326;SDS011;37412;52.836;6.362;2023-08-06T14:08:00;3.75;;;2.70;;
51326;SDS011;37412;52.836;6.362;2023-08-06T14:10:46;3.28;;;2.70;;
51326;SDS011;37412;52.836;6.362;2023-08-06T14:13:32;3.13;;;2.40;;
51326;SDS011;37412;52.836;6.362;2023-08-06T14:16:21;4.20;;;2.33;;
51326;SDS011;37412;52.836;6.362;2023-08-06T14:19:07;4.90;;;2.38;;
51326;SDS011;37412;52.836;6.362;2023-08-06T14:21:53;2.78;;;2.35;;
51326;SDS011;37412;52.836;6.362;2023-08-06T14:24:40;2.53;;;2.30;;
51326;SDS011;37412;52.836;6.362;2023-08-06T14:27:27;3.47;;;2.00;;
51326;SDS011;37412;52.836;6.362;2023-08-06T14:30:16;4.57;;;2.65;;
51326;SDS011;37412;52.836;6.362;2023-08-06T14:33:02;4.47;;;2.63;;
51326;SDS011;37412;52.836;6.362;2023-08-06T14:35:48;4.00;;;2.53;;
51326;SDS011;37412;52.836;6.362;2023-08-06T14:38:34;3.50;;;2.53;;
51326;SDS011;37412;52.836;6.362;2023-08-06T14:41:20;2.70;;;2.00;;
51326;SDS011;37412;52.836;6.362;2023-08-06T14:44:06;3.03;;;2.17;;
51326;SDS011;37412;52.836;6.362;2023-08-06T14:46:53;3.80;;;2.45;;
51326;SDS011;37412;52.836;6.362;2023-08-06T14:49:39;3.75;;;2.70;;
51326;SDS011;37412;52.836;6.362;2023-08-06T14:52:25;3.30;;;2.42;;
51326;SDS011;37412;52.836;6.362;2023-08-06T14:55:11;4.68;;;2.47;;
51326;SDS011;37412;52.836;6.362;2023-08-06T14:58:02;4.47;;;2.50;;
51326;SDS011;37412;52.836;6.362;2023-08-06T15:00:48;2.53;;;2.25;;
51326;SDS011;37412;52.836;6.362;2023-08-06T15:03:34;3.00;;;2.50;;
51326;SDS011;37412;52.836;6.362;2023-08-06T15:06:20;3.47;;;2.35;;
51326;SDS011;37412;52.836;6.362;2023-08-06T15:09:07;3.63;;;2.23;;
51326;SDS011;37412;52.836;6.362;2023-08-06T15:11:53;2.78;;;2.47;;
51326;SDS011;37412;52.836;6.362;2023-08-06T15:14:39;3.67;;;2.67;;
51326;SDS011;37412;52.836;6.362;2023-08-06T15:17:25;3.63;;;2.55;;
51326;SDS011;37412;52.836;6.362;2023-08-06T15:20:12;5.87;;;4.30;;
51326;SDS011;37412;52.836;6.362;2023-08-06T15:22:57;5.95;;;4.85;;
51326;SDS011;37412;52.836;6.362;2023-08-06T15:25:44;5.60;;;5.00;;
51326;SDS011;37412;52.836;6.362;2023-08-06T15:28:29;9.75;;;5.78;;
51326;SDS011;37412;52.836;6.362;2023-08-06T15:31:18;8.37;;;6.27;;
51326;SDS011;37412;52.836;6.362;2023-08-06T15:34:06;8.52;;;6.40;;
51326;SDS011;37412;52.836;6.362;2023-08-06T15:36:52;9.30;;;6.10;;
51326;SDS011;37412;52.836;6.362;2023-08-06T15:39:39;8.82;;;6.30;;
51326;SDS011;37412;52.836;6.362;2023-08-06T15:42:26;9.65;;;6.32;;
51326;SDS011;37412;52.836;6.362;2023-08-06T15:45:11;8.48;;;6.53;;
51326;SDS011;37412;52.836;6.362;2023-08-06T15:47:57;10.25;;;6.55;;
51326;SDS011;37412;52.836;6.362;2023-08-06T15:50:43;7.47;;;6.10;;
51326;SDS011;37412;52.836;6.362;2023-08-06T15:53:31;6.88;;;6.18;;
51326;SDS011;37412;52.836;6.362;2023-08-06T15:56:17;8.63;;;6.00;;
51326;SDS011;37412;52.836;6.362;2023-08-06T16:02:11;7.85;;;6.22;;
51326;SDS011;37412;52.836;6.362;2023-08-06T16:04:58;7.90;;;5.97;;
51326;SDS011;37412;52.836;6.362;2023-08-06T16:07:44;7.57;;;5.60;;
51326;SDS011;37412;52.836;6.362;2023-08-06T16:10:30;6.78;;;5.15;;
51326;SDS011;37412;52.836;6.362;2023-08-06T16:13:16;6.43;;;5.23;;
51326;SDS011;37412;52.836;6.362;2023-08-06T16:16:02;7.85;;;4.97;;
51326;SDS011;37412;52.836;6.362;2023-08-06T16:18:48;6.78;;;5.07;;
51326;SDS011;37412;52.836;6.362;2023-08-06T16:21:34;5.50;;;4.70;;
51326;SDS011;37412;52.836;6.362;2023-08-06T16:24:20;6.43;;;5.00;;
51326;SDS011;37412;52.836;6.362;2023-08-06T16:27:06;7.35;;;4.70;;
51326;SDS011;37412;52.836;6.362;2023-08-06T16:29:53;6.05;;;4.97;;
51326;SDS011;37412;52.836;6.362;2023-08-06T16:32:38;4.47;;;4.07;;
51326;SDS011;37412;52.836;6.362;2023-08-06T16:35:26;5.47;;;4.03;;
51326;SDS011;37412;52.836;6.362;2023-08-06T16:38:13;4.80;;;3.92;;
51326;SDS011;37412;52.836;6.362;2023-08-06T16:41:00;5.50;;;3.65;;